createdAt,value
2017-08-30T00:00:17.935Z,74.37
2017-08-30T00:00:45.941Z,74.18
2017-08-30T00:01:13.959Z,74.47
2017-08-30T00:01:41.974Z,73.57
2017-08-30T00:02:10.082Z,73.69
2017-08-30T00:02:38.099Z,74.24
2017-08-30T00:03:06.243Z,75.2
2017-08-30T00:03:34.706Z,74.43
2017-08-30T00:04:02.817Z,74.33
2017-08-30T00:04:30.844Z,74.24
2017-08-30T00:04:58.747Z,73.85
2017-08-30T00:05:26.812Z,73.85
2017-08-30T00:05:54.929Z,74.43
2017-08-30T00:06:23.042Z,74.33
2017-08-30T00:06:51.148Z,74.24
2017-08-30T00:07:19.282Z,74.58
2017-08-30T00:07:47.384Z,74.68
2017-08-30T00:08:15.506Z,74.58
2017-08-30T00:08:43.666Z,74.68
2017-08-30T00:09:11.793Z,74.58
2017-08-30T00:09:39.942Z,75.16
2017-08-30T00:10:08.072Z,76.32
2017-08-30T00:10:36.079Z,76.8
2017-08-30T00:11:04.001Z,76.8
2017-08-30T00:11:32.009Z,77
2017-08-30T00:11:59.843Z,76.42
2017-08-30T00:12:27.626Z,76.8
2017-08-30T00:12:55.721Z,76.8
2017-08-30T00:13:23.735Z,77.09
2017-08-30T00:13:51.916Z,76.32
2017-08-30T00:14:19.938Z,77.09
2017-08-30T00:14:48.055Z,76.32
2017-08-30T00:15:16.153Z,76.9
2017-08-30T00:15:44.147Z,77
2017-08-30T00:16:12.383Z,76.61
2017-08-30T00:16:40.535Z,77
2017-08-30T00:17:08.563Z,76.9
2017-08-30T00:17:36.574Z,76.71
2017-08-30T00:18:04.504Z,76.8
2017-08-30T00:18:32.538Z,76.48
2017-08-30T00:19:00.548Z,76.86
2017-08-30T00:19:28.668Z,76.86
2017-08-30T00:19:56.676Z,77.06
2017-08-30T00:20:25.114Z,76.86
2017-08-30T00:20:53.142Z,76.86
2017-08-30T00:21:21.279Z,77.83
2017-08-30T00:21:49.291Z,79.36
2017-08-30T00:22:17.209Z,79.94
2017-08-30T00:22:45.121Z,81.01
2017-08-30T00:23:13.245Z,80.81
2017-08-30T00:23:41.269Z,81.1
2017-08-30T00:24:09.168Z,80.71
2017-08-30T00:24:37.182Z,80.58
2017-08-30T00:25:05.430Z,80.29
2017-08-30T00:25:33.449Z,80.68
2017-08-30T00:26:01.361Z,81.06
2017-08-30T00:26:29.388Z,81.25
2017-08-30T00:26:57.501Z,81.54
2017-08-30T00:27:25.535Z,81.63
2017-08-30T00:27:53.563Z,81.45
2017-08-30T00:28:21.693Z,81.06
2017-08-30T00:28:49.637Z,80.96
2017-08-30T00:29:17.657Z,80.87
2017-08-30T00:29:45.675Z,80.87
2017-08-30T00:30:13.716Z,80.87
2017-08-30T00:30:41.758Z,81.63
2017-08-30T00:31:09.764Z,81.63
2017-08-30T00:31:37.700Z,81.45
2017-08-30T00:32:05.866Z,80.77
2017-08-30T00:32:48.279Z,79.9
2017-08-30T00:33:16.750Z,80.48
2017-08-30T00:33:44.796Z,81.45
2017-08-30T00:34:13.717Z,81.73
2017-08-30T00:34:42.202Z,81.16
2017-08-30T00:35:25.375Z,81.16
2017-08-30T00:35:53.785Z,81.25
2017-08-30T00:36:21.698Z,82.41
2017-08-30T00:36:49.804Z,81.35
2017-08-30T00:37:17.862Z,81.25
2017-08-30T00:37:45.852Z,81.06
2017-08-30T00:38:13.995Z,80.77
2017-08-30T00:38:42.090Z,82.41
2017-08-30T00:39:10.109Z,83.47
2017-08-30T00:39:38.143Z,83.14
2017-08-30T00:40:06.145Z,82.6
2017-08-30T00:40:34.164Z,82.7
2017-08-30T00:41:02.013Z,82.31
2017-08-30T00:41:30.018Z,81.88
2017-08-30T00:41:57.949Z,81.88
2017-08-30T00:42:25.977Z,82.65
2017-08-30T00:42:53.878Z,82.94
2017-08-30T00:43:21.988Z,83.14
2017-08-30T00:43:49.918Z,83.52
2017-08-30T00:44:17.763Z,84.1
2017-08-30T00:44:45.941Z,83.52
2017-08-30T00:45:14.050Z,83.33
2017-08-30T00:45:41.991Z,83.04
2017-08-30T00:46:10.025Z,83.23
2017-08-30T00:46:37.948Z,83.52
2017-08-30T00:47:05.853Z,83.56
2017-08-30T00:47:33.958Z,83.14
2017-08-30T00:48:01.976Z,82.94
2017-08-30T00:48:30.075Z,82.65
2017-08-30T00:48:58.085Z,82.27
2017-08-30T00:49:26.079Z,81.88
2017-08-30T00:49:54.187Z,82.17
2017-08-30T00:50:22.197Z,82.08
2017-08-30T00:50:50.314Z,81.4
2017-08-30T00:51:18.421Z,81.4
2017-08-30T00:51:46.334Z,81.4
2017-08-30T00:52:14.243Z,81.6
2017-08-30T00:52:42.334Z,81.7
2017-08-30T00:53:10.249Z,81.5
2017-08-30T00:53:38.370Z,82.46
2017-08-30T00:54:06.308Z,83.04
2017-08-30T00:54:34.317Z,83.23
2017-08-30T00:55:02.407Z,84.77
2017-08-30T00:55:30.434Z,84.54
2017-08-30T00:55:58.539Z,84.92
2017-08-30T00:56:27.325Z,84.92
2017-08-30T00:56:55.220Z,85.4
2017-08-30T00:57:23.346Z,84.83
2017-08-30T00:57:51.266Z,84.54
2017-08-30T00:58:19.189Z,84.54
2017-08-30T00:58:47.109Z,85.5
2017-08-30T00:59:14.944Z,85.02
2017-08-30T00:59:42.962Z,85.02
2017-08-30T01:00:10.910Z,84.73
2017-08-30T01:00:38.913Z,85.11
2017-08-30T01:01:07.037Z,84.92
2017-08-30T01:01:35.034Z,84.73
2017-08-30T01:02:03.136Z,85.11
2017-08-30T01:02:31.140Z,84.44
2017-08-30T01:02:59.093Z,84.25
2017-08-30T01:03:27.177Z,85.64
2017-08-30T01:03:55.168Z,86.46
2017-08-30T01:04:23.299Z,85.78
2017-08-30T01:04:51.322Z,85.88
2017-08-30T01:05:19.405Z,85.5
2017-08-30T01:05:47.517Z,85.78
2017-08-30T01:06:15.663Z,84.58
2017-08-30T01:06:43.791Z,84.73
2017-08-30T01:07:11.899Z,84.25
2017-08-30T01:07:39.829Z,84.54
2017-08-30T01:08:07.932Z,84.54
2017-08-30T01:08:35.874Z,84.16
2017-08-30T01:09:03.914Z,84.73
2017-08-30T01:09:32.186Z,84.83
2017-08-30T01:10:00.308Z,85.88
2017-08-30T01:10:28.436Z,85.6
2017-08-30T01:10:56.395Z,85.21
2017-08-30T01:11:24.519Z,85.25
2017-08-30T01:11:52.625Z,84.67
2017-08-30T01:12:20.727Z,85.4
2017-08-30T01:12:48.546Z,86.08
2017-08-30T01:13:16.647Z,86.46
2017-08-30T01:13:44.755Z,86.65
2017-08-30T01:14:12.774Z,86.65
2017-08-30T01:14:40.785Z,86.46
2017-08-30T01:15:08.602Z,85.78
2017-08-30T01:15:36.697Z,85.31
2017-08-30T01:16:04.687Z,85.5
2017-08-30T01:16:32.798Z,85.4
2017-08-30T01:17:00.884Z,85.6
2017-08-30T01:17:29.004Z,86.27
2017-08-30T01:17:57.110Z,86.36
2017-08-30T01:18:25.115Z,87.62
2017-08-30T01:18:53.116Z,86.75
2017-08-30T01:19:21.117Z,87.13
2017-08-30T01:19:49.252Z,86.85
2017-08-30T01:20:17.171Z,85.98
2017-08-30T01:20:45.072Z,85.78
2017-08-30T01:21:13.179Z,85.98
2017-08-30T01:21:41.288Z,86.85
2017-08-30T01:22:09.190Z,86.94
2017-08-30T01:22:37.007Z,86.65
2017-08-30T01:23:05.126Z,86.18
2017-08-30T01:23:33.129Z,86.27
2017-08-30T01:24:01.903Z,86.75
2017-08-30T01:24:30.024Z,87.62
2017-08-30T01:24:58.021Z,87.42
2017-08-30T01:25:26.016Z,88.29
2017-08-30T01:25:54.010Z,88.1
2017-08-30T01:26:22.117Z,88.29
2017-08-30T01:26:50.197Z,88.19
2017-08-30T01:27:18.313Z,88.39
2017-08-30T01:27:46.319Z,88.39
2017-08-30T01:28:14.328Z,88.1
2017-08-30T01:28:42.465Z,88.48
2017-08-30T01:29:10.506Z,88.1
2017-08-30T01:29:38.515Z,87.23
2017-08-30T01:30:06.553Z,87.42
2017-08-30T01:30:34.578Z,87.71
2017-08-30T01:31:02.660Z,87.62
2017-08-30T01:31:30.678Z,86.94
2017-08-30T01:31:58.704Z,86.46
2017-08-30T01:32:26.814Z,86.56
2017-08-30T01:32:54.826Z,86.36
2017-08-30T01:33:22.812Z,85.69
2017-08-30T01:33:50.916Z,85.6
2017-08-30T01:34:18.899Z,86.18
2017-08-30T01:34:46.797Z,87.33
2017-08-30T01:35:14.772Z,87.19
2017-08-30T01:35:42.900Z,87.38
2017-08-30T01:36:10.999Z,87.57
2017-08-30T01:36:38.984Z,87.81
2017-08-30T01:37:07.013Z,88.77
2017-08-30T01:37:35.129Z,89.35
2017-08-30T01:38:03.136Z,89.25
2017-08-30T01:38:31.062Z,89.11
2017-08-30T01:38:59.172Z,88.82
2017-08-30T01:39:27.089Z,89.11
2017-08-30T01:39:55.198Z,89.44
2017-08-30T01:40:23.204Z,89.01
2017-08-30T01:40:51.344Z,88.63
2017-08-30T01:41:19.457Z,88.63
2017-08-30T01:41:47.535Z,88.48
2017-08-30T01:42:15.533Z,88.24
2017-08-30T01:42:43.634Z,88.48
2017-08-30T01:43:11.784Z,88.96
2017-08-30T01:43:39.791Z,88.15
2017-08-30T01:44:07.821Z,88.34
2017-08-30T01:44:35.945Z,88.24
2017-08-30T01:45:04.046Z,88.29
2017-08-30T01:45:32.151Z,88.19
2017-08-30T01:46:00.145Z,87.86
2017-08-30T01:46:28.256Z,87.57
2017-08-30T01:46:56.274Z,88.24
2017-08-30T01:47:24.281Z,89.21
2017-08-30T01:47:52.308Z,89.69
2017-08-30T01:48:20.217Z,89.5
2017-08-30T01:48:48.137Z,89.25
2017-08-30T01:49:16.261Z,89.01
2017-08-30T01:49:44.389Z,89.21
2017-08-30T01:50:12.335Z,89.4
2017-08-30T01:50:40.450Z,89.11
2017-08-30T01:51:08.368Z,89.88
2017-08-30T01:51:36.463Z,90.26
2017-08-30T01:52:04.490Z,90.75
2017-08-30T01:52:32.473Z,90.84
2017-08-30T01:53:00.568Z,90.55
2017-08-30T01:53:28.526Z,91.13
2017-08-30T01:53:56.538Z,91.32
2017-08-30T01:54:24.641Z,90.94
2017-08-30T01:54:52.641Z,90.94
2017-08-30T01:55:20.666Z,90.84
2017-08-30T01:55:48.393Z,90.94
2017-08-30T01:56:16.418Z,91.42
2017-08-30T01:56:44.520Z,91.13
2017-08-30T01:57:12.551Z,90.84
2017-08-30T01:57:40.642Z,91.32
2017-08-30T01:58:08.751Z,91.22
2017-08-30T01:58:36.883Z,90.65
2017-08-30T01:59:04.879Z,90.75
2017-08-30T01:59:32.896Z,90.45
2017-08-30T02:00:00.896Z,90.65
2017-08-30T02:00:28.819Z,90.17
2017-08-30T02:00:56.936Z,90.55
2017-08-30T02:01:25.082Z,90.26
2017-08-30T02:01:53.010Z,90.17
2017-08-30T02:02:21.077Z,89.69
2017-08-30T02:02:49.188Z,89.5
2017-08-30T02:03:17.222Z,89.21
2017-08-30T02:03:45.343Z,89.21
2017-08-30T02:04:13.347Z,89.21
2017-08-30T02:04:41.387Z,89.69
2017-08-30T02:05:09.511Z,89.69
2017-08-30T02:05:37.618Z,90.65
2017-08-30T02:06:05.750Z,90.55
2017-08-30T02:06:33.775Z,89.78
2017-08-30T02:07:01.804Z,89.69
2017-08-30T02:07:29.814Z,89.21
2017-08-30T02:07:57.887Z,89.69
2017-08-30T02:08:26.008Z,89.3
2017-08-30T02:08:53.890Z,89.4
2017-08-30T02:09:21.889Z,89.3
2017-08-30T02:09:49.969Z,89.4
2017-08-30T02:10:17.994Z,89.3
2017-08-30T02:10:46.118Z,89.78
2017-08-30T02:11:14.108Z,90.26
2017-08-30T02:11:42.117Z,90.65
2017-08-30T02:12:10.257Z,90.65
2017-08-30T02:12:38.279Z,91.32
2017-08-30T02:13:06.313Z,90.65
2017-08-30T02:13:34.797Z,91.22
2017-08-30T02:14:02.902Z,90.84
2017-08-30T02:14:30.709Z,91.32
2017-08-30T02:14:58.808Z,92.43
2017-08-30T02:15:26.917Z,91.95
2017-08-30T02:15:54.941Z,92.43
2017-08-30T02:16:22.949Z,92.05
2017-08-30T02:16:51.079Z,91.56
2017-08-30T02:17:19.175Z,91.95
2017-08-30T02:17:47.079Z,92.09
2017-08-30T02:18:15.095Z,92.05
2017-08-30T02:18:42.988Z,91.56
2017-08-30T02:19:11.013Z,91.37
2017-08-30T02:19:39.161Z,91.37
2017-08-30T02:20:07.271Z,91.28
2017-08-30T02:20:35.190Z,91.28
2017-08-30T02:21:03.187Z,91.18
2017-08-30T02:21:31.192Z,90.99
2017-08-30T02:21:59.263Z,91.28
2017-08-30T02:22:27.386Z,91.37
2017-08-30T02:22:55.481Z,91.18
2017-08-30T02:23:23.591Z,91.28
2017-08-30T02:23:51.646Z,91.28
2017-08-30T02:24:19.650Z,91.08
2017-08-30T02:24:47.745Z,91.28
2017-08-30T02:25:15.737Z,91.08
2017-08-30T02:25:43.841Z,91.47
2017-08-30T02:26:11.774Z,91.47
2017-08-30T02:26:39.779Z,91.28
2017-08-30T02:27:07.923Z,91.37
2017-08-30T02:27:35.850Z,91.37
2017-08-30T02:28:03.995Z,90.99
2017-08-30T02:28:32.118Z,91.18
2017-08-30T02:29:00.400Z,91.08
2017-08-30T02:29:28.497Z,90.99
2017-08-30T02:29:56.617Z,91.28
2017-08-30T02:30:24.625Z,91.18
2017-08-30T02:30:52.629Z,90.41
2017-08-30T02:31:20.627Z,90.6
2017-08-30T02:31:48.726Z,90.7
2017-08-30T02:32:16.837Z,90.31
2017-08-30T02:32:44.875Z,90.41
2017-08-30T02:33:12.892Z,90.51
2017-08-30T02:33:40.804Z,90.41
2017-08-30T02:34:08.834Z,90.6
2017-08-30T02:34:36.983Z,90.51
2017-08-30T02:35:05.061Z,90.6
2017-08-30T02:35:33.089Z,90.41
2017-08-30T02:36:01.208Z,90.7
2017-08-30T02:36:29.330Z,90.7
2017-08-30T02:36:57.363Z,90.6
2017-08-30T02:37:25.479Z,90.51
2017-08-30T02:37:53.478Z,90.41
2017-08-30T02:38:21.397Z,89.93
2017-08-30T02:38:49.413Z,90.31
2017-08-30T02:39:17.524Z,90.51
2017-08-30T02:39:45.519Z,91.18
2017-08-30T02:40:13.510Z,91.18
2017-08-30T02:40:41.698Z,91.28
2017-08-30T02:41:09.814Z,91.37
2017-08-30T02:41:37.893Z,91.28
2017-08-30T02:42:05.786Z,91.37
2017-08-30T02:42:33.885Z,91.56
2017-08-30T02:43:02.007Z,91.18
2017-08-30T02:43:29.914Z,91.75
2017-08-30T02:43:57.947Z,91.28
2017-08-30T02:44:25.980Z,91.75
2017-08-30T02:44:53.991Z,91.56
2017-08-30T02:45:21.904Z,91.37
2017-08-30T02:45:49.920Z,91.66
2017-08-30T02:46:18.087Z,91.37
2017-08-30T02:46:46.082Z,92.43
2017-08-30T02:47:14.031Z,92.05
2017-08-30T02:47:42.039Z,92.05
2017-08-30T02:48:10.174Z,92.05
2017-08-30T02:48:38.272Z,92.05
2017-08-30T02:49:06.287Z,91.95
2017-08-30T02:49:34.301Z,92.52
2017-08-30T02:50:02.392Z,92.24
2017-08-30T02:50:30.341Z,92.91
2017-08-30T02:50:58.364Z,93.15
2017-08-30T02:51:26.411Z,93.15
2017-08-30T02:51:54.329Z,92.96
2017-08-30T02:52:22.443Z,92.57
2017-08-30T02:52:50.469Z,93.05
2017-08-30T02:53:18.379Z,92.57
2017-08-30T02:53:46.478Z,93.05
2017-08-30T02:54:14.586Z,93.15
2017-08-30T02:54:42.604Z,93.44
2017-08-30T02:55:10.708Z,93.44
2017-08-30T02:55:38.867Z,93.63
2017-08-30T02:56:06.981Z,93.15
2017-08-30T02:56:35.779Z,93.73
2017-08-30T02:57:03.882Z,93.82
2017-08-30T02:57:31.777Z,93.92
2017-08-30T02:57:59.900Z,93.63
2017-08-30T02:58:27.898Z,93.82
2017-08-30T02:58:55.921Z,93.63
2017-08-30T02:59:24.029Z,93.34
2017-08-30T02:59:52.156Z,94.21
2017-08-30T03:00:20.148Z,93.54
2017-08-30T03:00:48.035Z,93.54
2017-08-30T03:01:16.043Z,93.73
2017-08-30T03:01:43.970Z,93.63
2017-08-30T03:02:12.002Z,93.44
2017-08-30T03:02:40.107Z,93.73
2017-08-30T03:03:08.133Z,94.31
2017-08-30T03:03:36.258Z,93.63
2017-08-30T03:04:04.510Z,93.92
2017-08-30T03:04:32.532Z,93.54
2017-08-30T03:05:00.662Z,93.63
2017-08-30T03:05:28.772Z,94.21
2017-08-30T03:05:56.896Z,94.01
2017-08-30T03:06:24.911Z,93.92
2017-08-30T03:06:53.020Z,94.21
2017-08-30T03:07:20.835Z,93.82
2017-08-30T03:07:48.858Z,94.49
2017-08-30T03:08:16.768Z,93.82
2017-08-30T03:08:44.893Z,94.11
2017-08-30T03:09:12.911Z,93.82
2017-08-30T03:09:40.935Z,94.11
2017-08-30T03:10:09.053Z,93.44
2017-08-30T03:10:37.200Z,94.21
2017-08-30T03:11:05.318Z,94.4
2017-08-30T03:11:33.443Z,94.69
2017-08-30T03:12:01.547Z,94.01
2017-08-30T03:12:29.648Z,94.11
2017-08-30T03:12:57.640Z,94.01
2017-08-30T03:13:25.650Z,93.92
2017-08-30T03:13:53.660Z,94.31
2017-08-30T03:14:21.756Z,94.31
2017-08-30T03:14:49.757Z,94.4
2017-08-30T03:15:17.644Z,94.4
2017-08-30T03:15:45.618Z,93.92
2017-08-30T03:16:13.636Z,93.82
2017-08-30T03:16:41.653Z,94.4
2017-08-30T03:17:09.687Z,94.69
2017-08-30T03:17:37.765Z,94.69
2017-08-30T03:18:05.696Z,94.69
2017-08-30T03:18:33.817Z,94.4
2017-08-30T03:19:01.946Z,94.31
2017-08-30T03:19:29.875Z,94.01
2017-08-30T03:19:57.889Z,94.11
2017-08-30T03:20:25.836Z,93.63
2017-08-30T03:20:53.846Z,94.11
2017-08-30T03:21:21.768Z,93.82
2017-08-30T03:21:49.849Z,94.4
2017-08-30T03:22:17.953Z,94.01
2017-08-30T03:22:46.046Z,94.69
2017-08-30T03:23:14.070Z,94.31
2017-08-30T03:23:42.199Z,94.11
2017-08-30T03:24:10.180Z,93.63
2017-08-30T03:24:38.227Z,93.92
2017-08-30T03:25:06.241Z,93.73
2017-08-30T03:25:34.152Z,94.21
2017-08-30T03:26:02.279Z,94.21
2017-08-30T03:26:30.395Z,94.21
2017-08-30T03:26:58.503Z,94.01
2017-08-30T03:27:26.503Z,94.11
2017-08-30T03:27:54.606Z,94.21
2017-08-30T03:28:22.617Z,93.82
2017-08-30T03:28:50.578Z,93.54
2017-08-30T03:29:18.565Z,93.54
2017-08-30T03:29:46.249Z,93.73
2017-08-30T03:30:14.280Z,93.44
2017-08-30T03:30:42.373Z,93.82
2017-08-30T03:31:10.497Z,93.73
2017-08-30T03:31:38.613Z,93.73
2017-08-30T03:32:06.622Z,93.15
2017-08-30T03:32:34.742Z,93.15
2017-08-30T03:33:02.851Z,93.05
2017-08-30T03:33:30.768Z,92.96
2017-08-30T03:33:58.884Z,92.67
2017-08-30T03:34:26.982Z,93.05
2017-08-30T03:34:55.077Z,93.05
2017-08-30T03:35:23.096Z,93.34
2017-08-30T03:35:51.121Z,93.15
2017-08-30T03:36:19.139Z,93.15
2017-08-30T03:36:47.136Z,93.82
2017-08-30T03:37:15.131Z,94.11
2017-08-30T03:37:43.269Z,94.49
2017-08-30T03:38:11.389Z,94.69
2017-08-30T03:38:39.519Z,94.83
2017-08-30T03:39:07.538Z,94.93
2017-08-30T03:39:35.652Z,94.74
2017-08-30T03:40:03.754Z,95.7
2017-08-30T03:40:31.649Z,95.98
2017-08-30T03:40:59.662Z,95.89
2017-08-30T03:41:27.463Z,96.27
2017-08-30T03:41:55.477Z,96.75
2017-08-30T03:42:23.581Z,95.7
2017-08-30T03:42:51.688Z,96.37
2017-08-30T03:43:19.795Z,96.56
2017-08-30T03:43:47.936Z,96.37
2017-08-30T03:44:15.938Z,97.14
2017-08-30T03:44:43.965Z,97.24
2017-08-30T03:45:12.061Z,96.94
2017-08-30T03:45:40.178Z,97.14
2017-08-30T03:46:08.212Z,97.56
2017-08-30T03:46:36.229Z,97.42
2017-08-30T03:47:04.323Z,97.42
2017-08-30T03:47:32.484Z,97.81
2017-08-30T03:48:00.625Z,97.71
2017-08-30T03:48:28.750Z,97.91
2017-08-30T03:48:56.852Z,97.81
2017-08-30T03:49:24.862Z,97.71
2017-08-30T03:49:52.787Z,97.52
2017-08-30T03:50:20.779Z,97.81
2017-08-30T03:50:48.785Z,97.42
2017-08-30T03:51:16.792Z,97.91
2017-08-30T03:51:44.889Z,97.95
2017-08-30T03:52:12.900Z,97.95
2017-08-30T03:52:40.926Z,98.86
2017-08-30T03:53:08.924Z,98.82
2017-08-30T03:53:36.999Z,98.82
2017-08-30T03:54:05.113Z,98.29
2017-08-30T03:54:33.245Z,98.33
2017-08-30T03:55:01.349Z,98.33
2017-08-30T03:55:29.336Z,98.05
2017-08-30T03:55:57.228Z,98
2017-08-30T03:56:25.289Z,97.95
2017-08-30T03:56:53.293Z,98.14
2017-08-30T03:57:21.379Z,98.24
2017-08-30T03:57:49.593Z,98.82
2017-08-30T03:58:17.709Z,98.33
2017-08-30T03:58:45.713Z,98.82
2017-08-30T03:59:13.842Z,98.33
2017-08-30T03:59:41.761Z,98.67
2017-08-30T04:00:09.904Z,98.91
2017-08-30T04:00:38.008Z,98.19
2017-08-30T04:01:06.027Z,98.19
2017-08-30T04:01:34.061Z,98.29
2017-08-30T04:02:02.176Z,98.38
2017-08-30T04:02:29.975Z,98.86
2017-08-30T04:02:57.978Z,98.43
2017-08-30T04:03:26.085Z,98.72
2017-08-30T04:03:54.204Z,99.29
2017-08-30T04:04:22.258Z,99.39
2017-08-30T04:04:50.233Z,99.1
2017-08-30T04:05:18.267Z,99.49
2017-08-30T04:05:46.372Z,99.99
2017-08-30T04:06:14.475Z,99.99
2017-08-30T04:06:42.585Z,99.99
2017-08-30T04:07:10.693Z,99.99
2017-08-30T04:07:38.780Z,99.99
2017-08-30T04:08:06.873Z,99.99
2017-08-30T04:08:35.009Z,99.99
2017-08-30T04:09:03.127Z,99.99
2017-08-30T04:09:31.234Z,99.99
2017-08-30T04:09:59.338Z,99.99
2017-08-30T04:10:27.477Z,99.99
2017-08-30T04:10:55.607Z,99.99
2017-08-30T04:11:23.724Z,99.99
2017-08-30T04:11:51.659Z,99.99
2017-08-30T04:12:19.480Z,99.99
2017-08-30T04:12:47.389Z,99.99
2017-08-30T04:13:15.492Z,99.99
2017-08-30T04:13:43.599Z,99.99
2017-08-30T04:14:11.624Z,99.99
2017-08-30T04:14:39.706Z,99.99
2017-08-30T04:15:07.710Z,99.99
2017-08-30T04:15:35.610Z,99.99
2017-08-30T04:16:03.708Z,99.99
2017-08-30T04:16:31.715Z,99.99
2017-08-30T04:16:59.848Z,99.99
2017-08-30T04:17:27.871Z,99.99
2017-08-30T04:17:55.781Z,99.99
2017-08-30T04:18:23.583Z,99.99
2017-08-30T04:18:51.698Z,99.99
2017-08-30T04:19:19.623Z,99.99
2017-08-30T04:19:47.761Z,99.99
2017-08-30T04:20:15.661Z,99.99
2017-08-30T04:20:43.776Z,99.99
2017-08-30T04:21:11.885Z,99.87
2017-08-30T04:21:39.997Z,99.77
2017-08-30T04:22:08.008Z,99.58
2017-08-30T04:22:36.115Z,99.99
2017-08-30T04:23:04.160Z,99.99
2017-08-30T04:23:32.265Z,99.99
2017-08-30T04:24:00.254Z,99.99
2017-08-30T04:24:28.363Z,99.99
2017-08-30T04:24:56.482Z,99.99
2017-08-30T04:25:24.485Z,99.99
2017-08-30T04:25:52.400Z,99.99
2017-08-30T04:26:20.503Z,99.99
2017-08-30T04:26:48.611Z,99.99
2017-08-30T04:27:16.623Z,99.99
2017-08-30T04:27:44.731Z,99.99
2017-08-30T04:28:12.744Z,99.99
2017-08-30T04:28:40.834Z,99.99
2017-08-30T04:29:08.856Z,99.99
2017-08-30T04:29:36.851Z,99.99
2017-08-30T04:30:04.950Z,99.99
2017-08-30T04:30:32.863Z,99.99
2017-08-30T04:31:00.975Z,99.99
2017-08-30T04:31:28.962Z,99.99
2017-08-30T04:31:56.988Z,99.99
2017-08-30T04:32:24.973Z,99.99
2017-08-30T04:32:53.045Z,99.99
2017-08-30T04:33:21.149Z,99.99
2017-08-30T04:33:49.157Z,99.99
2017-08-30T04:34:17.188Z,99.99
2017-08-30T04:34:45.107Z,99.99
2017-08-30T04:35:13.144Z,99.99
2017-08-30T04:35:41.143Z,99.99
2017-08-30T04:36:09.151Z,99.99
2017-08-30T04:36:37.250Z,99.99
2017-08-30T04:37:05.263Z,99.99
2017-08-30T04:37:33.254Z,99.99
2017-08-30T04:38:01.350Z,99.99
2017-08-30T04:38:29.357Z,99.99
2017-08-30T04:38:57.335Z,99.99
2017-08-30T04:39:25.355Z,99.99
2017-08-30T04:39:53.436Z,99.99
2017-08-30T04:40:21.470Z,99.99
2017-08-30T04:40:49.468Z,99.99
2017-08-30T04:41:17.399Z,99.99
2017-08-30T04:41:45.409Z,99.99
2017-08-30T04:42:13.516Z,99.99
2017-08-30T04:42:41.619Z,99.99
2017-08-30T04:43:09.606Z,99.99
2017-08-30T04:43:37.618Z,99.99
2017-08-30T04:44:05.729Z,99.99
2017-08-30T04:44:33.823Z,99.99
2017-08-30T04:45:01.829Z,99.99
2017-08-30T04:45:29.825Z,99.99
2017-08-30T04:45:57.934Z,99.99
2017-08-30T04:46:26.036Z,99.99
2017-08-30T04:46:54.040Z,99.99
2017-08-30T04:47:22.131Z,99.99
2017-08-30T04:47:50.209Z,99.99
2017-08-30T04:48:18.249Z,99.99
2017-08-30T04:48:46.306Z,99.99
2017-08-30T04:49:14.408Z,99.99
2017-08-30T04:49:42.419Z,99.99
2017-08-30T04:50:10.406Z,99.99
2017-08-30T04:50:38.421Z,99.99
2017-08-30T04:51:06.543Z,99.99
2017-08-30T04:51:34.634Z,99.99
2017-08-30T04:52:02.673Z,99.99
2017-08-30T04:52:30.691Z,99.99
2017-08-30T04:52:58.696Z,99.91
2017-08-30T04:53:26.847Z,99.99
2017-08-30T04:53:54.864Z,99.99
2017-08-30T04:54:22.972Z,99.53
2017-08-30T04:54:50.979Z,99.53
2017-08-30T04:55:19.077Z,99.44
2017-08-30T04:55:47.191Z,99.44
2017-08-30T04:56:15.306Z,99.15
2017-08-30T04:56:43.196Z,99.34
2017-08-30T04:57:11.259Z,99.15
2017-08-30T04:57:39.066Z,99.34
2017-08-30T04:58:07.172Z,99.44
2017-08-30T04:58:35.093Z,99.44
2017-08-30T04:59:03.117Z,99.24
2017-08-30T04:59:31.143Z,99.15
2017-08-30T04:59:59.218Z,99.53
2017-08-30T05:00:27.215Z,99.34
2017-08-30T05:00:55.266Z,98.96
2017-08-30T05:01:23.391Z,98.77
2017-08-30T05:01:51.318Z,98.96
2017-08-30T05:02:19.301Z,98.86
2017-08-30T05:02:47.343Z,98.57
2017-08-30T05:03:15.466Z,98.57
2017-08-30T05:03:43.582Z,98.96
2017-08-30T05:04:11.703Z,98.96
2017-08-30T05:04:39.814Z,98.67
2017-08-30T05:05:07.841Z,98.86
2017-08-30T05:05:35.727Z,98.77
2017-08-30T05:06:03.888Z,98.77
2017-08-30T05:06:31.896Z,99.34
2017-08-30T05:07:00.009Z,99.34
2017-08-30T05:07:27.941Z,99.53
2017-08-30T05:07:55.949Z,98.77
2017-08-30T05:08:24.058Z,99.53
2017-08-30T05:08:52.079Z,99.53
2017-08-30T05:09:19.989Z,99.53
2017-08-30T05:09:47.919Z,99.15
2017-08-30T05:10:16.035Z,99.29
2017-08-30T05:10:44.132Z,99.34
2017-08-30T05:11:12.143Z,99.15
2017-08-30T05:11:40.055Z,98.81
2017-08-30T05:12:08.049Z,98.77
2017-08-30T05:12:36.162Z,98.91
2017-08-30T05:13:04.058Z,98.62
2017-08-30T05:13:32.146Z,98.72
2017-08-30T05:14:00.247Z,98.81
2017-08-30T05:14:28.352Z,98.86
2017-08-30T05:14:56.345Z,98.72
2017-08-30T05:15:24.358Z,98.72
2017-08-30T05:15:52.256Z,98.62
2017-08-30T05:16:20.382Z,98.62
2017-08-30T05:16:48.383Z,98.52
2017-08-30T05:17:16.493Z,99.01
2017-08-30T05:17:44.591Z,99.29
2017-08-30T05:18:12.625Z,98.33
2017-08-30T05:18:40.309Z,98.72
2017-08-30T05:19:08.310Z,98.52
2017-08-30T05:19:36.343Z,98.14
2017-08-30T05:20:04.457Z,98.33
2017-08-30T05:20:32.378Z,98.24
2017-08-30T05:21:00.381Z,98.72
2017-08-30T05:21:28.478Z,98.52
2017-08-30T05:21:56.599Z,99.29
2017-08-30T05:22:24.613Z,99.01
2017-08-30T05:22:52.639Z,99.48
2017-08-30T05:23:20.646Z,99.99
2017-08-30T05:23:48.745Z,99.99
2017-08-30T05:24:16.807Z,99.99
2017-08-30T05:24:44.922Z,99.99
2017-08-30T05:25:12.947Z,99.99
2017-08-30T05:25:41.036Z,99.99
2017-08-30T05:26:09.012Z,99.99
2017-08-30T05:26:37.112Z,99.99
2017-08-30T05:27:05.232Z,99.99
2017-08-30T05:27:33.219Z,99.99
2017-08-30T05:28:01.128Z,99.99
2017-08-30T05:28:29.249Z,99.99
2017-08-30T05:28:57.369Z,99.99
2017-08-30T05:29:25.407Z,99.99
2017-08-30T05:29:53.512Z,99.99
2017-08-30T05:30:21.620Z,99.99
2017-08-30T05:30:49.733Z,99.99
2017-08-30T05:31:17.657Z,99.99
2017-08-30T05:31:45.657Z,99.99
2017-08-30T05:32:13.679Z,99.99
2017-08-30T05:32:41.542Z,99.99
2017-08-30T05:33:09.415Z,99.99
2017-08-30T05:33:37.312Z,99.99
2017-08-30T05:34:05.414Z,99.99
2017-08-30T05:34:33.423Z,99.72
2017-08-30T05:35:01.533Z,99.99
2017-08-30T05:35:29.553Z,99.58
2017-08-30T05:35:57.454Z,99.82
2017-08-30T05:36:25.581Z,99.82
2017-08-30T05:36:53.730Z,99.53
2017-08-30T05:37:21.840Z,99.01
2017-08-30T05:37:49.965Z,99.24
2017-08-30T05:38:18.280Z,98.86
2017-08-30T05:38:46.288Z,99.48
2017-08-30T05:39:14.400Z,99.24
2017-08-30T05:39:42.524Z,99.68
2017-08-30T05:40:10.527Z,99.24
2017-08-30T05:40:38.652Z,99.99
2017-08-30T05:41:06.679Z,99.91
2017-08-30T05:41:34.794Z,99.99
2017-08-30T05:42:02.916Z,99.99
2017-08-30T05:42:30.722Z,99.99
2017-08-30T05:42:58.843Z,99.99
2017-08-30T05:43:26.966Z,99.99
2017-08-30T05:43:55.006Z,99.99
2017-08-30T05:44:23.129Z,99.99
2017-08-30T05:44:51.049Z,99.99
2017-08-30T05:45:19.027Z,99.99
2017-08-30T05:45:47.146Z,99.99
2017-08-30T05:46:15.152Z,99.99
2017-08-30T05:46:43.156Z,99.99
2017-08-30T05:47:11.055Z,99.99
2017-08-30T05:47:39.181Z,99.99
2017-08-30T05:48:07.191Z,99.99
2017-08-30T05:48:35.234Z,99.99
2017-08-30T05:49:03.260Z,99.82
2017-08-30T05:49:31.384Z,99.82
2017-08-30T05:49:59.397Z,99.99
2017-08-30T05:50:27.295Z,99.82
2017-08-30T05:50:55.402Z,99.53
2017-08-30T05:51:23.518Z,99.72
2017-08-30T05:51:51.641Z,99.24
2017-08-30T05:52:19.724Z,99.05
2017-08-30T05:52:47.741Z,99.15
2017-08-30T05:53:15.878Z,99.24
2017-08-30T05:53:44.009Z,99.15
2017-08-30T05:54:12.111Z,98.86
2017-08-30T05:54:40.231Z,98.57
2017-08-30T05:55:08.154Z,98.19
2017-08-30T05:55:36.043Z,98.86
2017-08-30T05:56:04.156Z,98.47
2017-08-30T05:56:32.160Z,98.76
2017-08-30T05:57:00.060Z,98.28
2017-08-30T05:57:28.183Z,97.9
2017-08-30T05:57:56.295Z,97.42
2017-08-30T05:58:24.434Z,96.66
2017-08-30T05:58:52.530Z,96.66
2017-08-30T05:59:20.534Z,96.37
2017-08-30T05:59:48.508Z,96.27
2017-08-30T06:00:16.389Z,96.37
2017-08-30T06:00:44.500Z,96.94
2017-08-30T06:01:12.627Z,96.84
2017-08-30T06:01:40.736Z,97.61
2017-08-30T06:02:08.753Z,97.42
2017-08-30T06:02:36.646Z,97.42